Trinity, Alabama
Current Conditions -  °F | °C
As of 12:53 AM on Monday 24 Nov 2014 (Local Time) from KDCU Reporting Station
Scattered Clouds Scattered Clouds  
Wind Chill: 62°   Ceiling: Unl
Heat Index: 62°   Visibility: 10mi
Dew Point: 56°   Wind: 18mph
Humidity: 80%   Direction: 190°S
Pressure: 29.6"   Gusts: NA
Location:  34.61°N, 87.09°W
Report Text: KDCU 240653Z AUTO 19016KT 10SM SCT023 17/13 A2960 RMK AO2 PK WND 19026/0602 SLP019 T01670133
Loading
Personal Weather Stations






























Interactive Weather Map New forecast layout! Learn more

10-Day Weather Forecast

Advertisements
Track Severe Weather on mobile